Time;durP1;ratioP1;P1;durP2;ratioP2;P2;SDS_P1;SDS_P2;PMS_P1;PMS_P2;Temp;Humidity;BMP_temperature;BMP_pressure;BME280_temperature;BME280_humidity;BME280_pressure;Samples;Min_cycle;Max_cycle;Signal;HPM_P1;HPM_P2
2023/12/27 00:00:37;;;;;;;7.50;4.95;;;;;;;-144.57;100.00;62443.72;5031610;28;20072;-59
2023/12/27 00:03:03;;;;;;;10.48;5.10;;;;;;;-144.57;100.00;62443.72;5031330;28;20033;-58
2023/12/27 00:05:30;;;;;;;8.60;4.97;;;;;;;-144.57;100.00;62443.72;5029822;28;20092;-61
2023/12/27 00:07:56;;;;;;;10.30;5.60;;;;;;;-144.57;100.00;62443.72;5031165;28;20124;-60
2023/12/27 00:10:22;;;;;;;9.05;4.97;;;;;;;-144.57;100.00;62443.72;5031353;28;20133;-60
2023/12/27 00:12:47;;;;;;;9.63;5.35;;;;;;;-144.57;100.00;62443.72;5029877;28;20107;-60
2023/12/27 00:15:14;;;;;;;9.82;5.18;;;;;;;-144.57;100.00;62443.72;5031220;28;20040;-60
2023/12/27 00:17:39;;;;;;;11.55;5.78;;;;;;;-144.57;100.00;62443.72;5031175;28;20049;-61
2023/12/27 00:20:06;;;;;;;12.75;6.43;;;;;;;-144.57;100.00;62443.72;5027654;28;20393;-59
2023/12/27 00:22:32;;;;;;;10.77;5.72;;;;;;;-144.57;100.00;62443.72;5011173;28;20088;-61
2023/12/27 00:24:57;;;;;;;9.63;5.70;;;;;;;-144.57;100.00;62443.72;5009894;28;20054;-59
2023/12/27 00:27:23;;;;;;;9.40;5.90;;;;;;;-144.57;100.00;62443.72;5011162;28;20071;-61
2023/12/27 00:29:49;;;;;;;10.90;5.68;;;;;;;-144.57;100.00;62443.72;5010990;28;20112;-59
2023/12/27 00:32:15;;;;;;;10.75;5.68;;;;;;;-144.57;100.00;62443.72;5009813;28;20042;-62
2023/12/27 00:34:41;;;;;;;10.68;5.88;;;;;;;-144.57;100.00;62443.72;5027406;28;20053;-59
2023/12/27 00:37:08;;;;;;;8.70;5.25;;;;;;;-144.57;100.00;62443.72;5029563;28;20041;-60
2023/12/27 00:39:34;;;;;;;9.93;5.68;;;;;;;-144.57;100.00;62443.72;5029122;28;20050;-59
2023/12/27 00:42:00;;;;;;;10.50;5.63;;;;;;;-144.57;100.00;62443.72;5030942;28;20052;-61
2023/12/27 00:44:26;;;;;;;10.95;6.00;;;;;;;-144.57;100.00;62443.72;5030824;28;20041;-60
2023/12/27 00:46:51;;;;;;;12.35;6.25;;;;;;;-144.57;100.00;62443.72;5030628;28;20037;-60
2023/12/27 00:49:18;;;;;;;11.02;6.00;;;;;;;-144.57;100.00;62443.72;5014970;28;20662;-60
2023/12/27 00:51:44;;;;;;;10.40;6.07;;;;;;;-144.57;100.00;62443.72;5033224;28;20128;-58
2023/12/27 00:54:10;;;;;;;12.45;6.50;;;;;;;-144.57;100.00;62443.72;5032877;28;20068;-59
2023/12/27 00:56:36;;;;;;;10.23;5.68;;;;;;;-144.57;100.00;62443.72;5034086;28;20081;-60
2023/12/27 00:59:02;;;;;;;10.73;6.03;;;;;;;-144.57;100.00;62443.72;5028624;28;20061;-59
2023/12/27 01:01:30;;;;;;;12.23;6.57;;;;;;;-144.57;100.00;62443.72;5003801;28;20088;-59
2023/12/27 01:03:56;;;;;;;10.18;5.93;;;;;;;-144.57;100.00;62443.72;5028764;28;20495;-60
2023/12/27 01:06:24;;;;;;;11.32;6.00;;;;;;;-144.57;100.00;62443.72;5032205;28;20052;-59
2023/12/27 01:08:50;;;;;;;12.95;5.80;;;;;;;-144.57;100.00;62443.72;5014070;28;20053;-58
2023/12/27 01:11:17;;;;;;;10.80;6.18;;;;;;;-144.57;100.00;62443.72;5014632;28;20451;-59
2023/12/27 01:13:44;;;;;;;12.55;6.13;;;;;;;-144.57;100.00;62443.72;4996509;28;20038;-60
2023/12/27 01:16:11;;;;;;;11.85;6.38;;;;;;;-144.57;100.00;62443.72;5023830;28;20045;-59
2023/12/27 01:18:36;;;;;;;12.10;6.40;;;;;;;-144.57;100.00;62443.72;5033667;28;20124;-60
2023/12/27 01:21:02;;;;;;;12.77;6.13;;;;;;;-144.57;100.00;62443.72;5034020;28;20045;-60
2023/12/27 01:23:29;;;;;;;12.75;6.32;;;;;;;-144.57;100.00;62443.72;5015994;28;20099;-60
2023/12/27 01:25:55;;;;;;;11.43;5.82;;;;;;;-144.57;100.00;62443.72;5032456;28;20041;-60
2023/12/27 01:28:21;;;;;;;10.60;6.10;;;;;;;-144.57;100.00;62443.72;5033627;28;20045;-60
2023/12/27 01:30:47;;;;;;;11.77;6.00;;;;;;;-144.57;100.00;62443.72;5033884;28;20069;-60
2023/12/27 01:33:13;;;;;;;12.07;6.15;;;;;;;-144.57;100.00;62443.72;5004969;28;20479;-60
2023/12/27 01:35:40;;;;;;;12.25;6.30;;;;;;;-144.57;100.00;62443.72;5012316;28;20084;-59
2023/12/27 01:38:05;;;;;;;12.38;6.53;;;;;;;-144.57;100.00;62443.72;5012376;28;20106;-60
2023/12/27 01:40:31;;;;;;;11.27;5.80;;;;;;;-144.57;100.00;62443.72;5013564;28;20539;-59
2023/12/27 01:42:57;;;;;;;12.02;6.53;;;;;;;-144.57;100.00;62443.72;5013505;28;20068;-59
2023/12/27 01:45:24;;;;;;;13.60;6.90;;;;;;;-144.57;100.00;62443.72;5013871;28;20343;-60
2023/12/27 01:47:50;;;;;;;12.63;6.47;;;;;;;-144.57;100.00;62443.72;5012818;28;20046;-60
2023/12/27 01:50:15;;;;;;;14.65;6.07;;;;;;;-144.57;100.00;62443.72;4996798;28;20625;-58
2023/12/27 01:52:41;;;;;;;15.32;6.38;;;;;;;-144.57;100.00;62443.72;5013247;28;20073;-60
2023/12/27 01:55:09;;;;;;;12.85;7.13;;;;;;;-144.57;100.00;62443.72;5014264;28;20133;-59
2023/12/27 01:57:40;;;;;;;11.25;6.15;;;;;;;-144.57;100.00;62443.72;5012250;28;20512;-59
2023/12/27 02:00:07;;;;;;;11.20;6.18;;;;;;;-144.57;100.00;62443.72;5015338;28;20053;-61
2023/12/27 02:02:39;;;;;;;9.82;5.40;;;;;;;-144.57;100.00;62443.72;5028049;28;20041;-60
2023/12/27 02:05:06;;;;;;;9.90;5.75;;;;;;;-144.57;100.00;62443.72;5014740;28;20042;-60
2023/12/27 02:07:34;;;;;;;12.00;6.25;;;;;;;-144.57;100.00;62443.72;5017625;28;20034;-59
2023/12/27 02:10:00;;;;;;;12.30;6.82;;;;;;;-144.57;100.00;62443.72;5015515;28;20136;-61
2023/12/27 02:12:32;;;;;;;11.30;6.15;;;;;;;-144.57;100.00;62443.72;5014537;28;20068;-61
2023/12/27 02:14:58;;;;;;;12.18;6.03;;;;;;;-144.57;100.00;62443.72;5013997;28;20050;-60
2023/12/27 02:17:26;;;;;;;11.55;6.40;;;;;;;-144.57;100.00;62443.72;5014317;28;20041;-60
2023/12/27 02:19:54;;;;;;;12.57;6.18;;;;;;;-144.57;100.00;62443.72;5013532;28;20399;-58
2023/12/27 02:22:20;;;;;;;11.32;6.32;;;;;;;-144.57;100.00;62443.72;5051359;28;20132;-58
2023/12/27 02:24:50;;;;;;;13.60;6.82;;;;;;;-144.57;100.00;62443.72;5051502;28;20053;-59
2023/12/27 02:27:16;;;;;;;12.13;6.65;;;;;;;-144.57;100.00;62443.72;5035059;28;20041;-60
2023/12/27 02:29:42;;;;;;;11.50;6.13;;;;;;;-144.57;100.00;62443.72;5052513;28;20049;-59
2023/12/27 02:32:08;;;;;;;12.10;6.20;;;;;;;-144.57;100.00;62443.72;5051166;28;20080;-60
2023/12/27 02:34:34;;;;;;;11.38;6.55;;;;;;;-144.57;100.00;62443.72;5035589;28;20077;-59
2023/12/27 02:37:00;;;;;;;10.68;6.07;;;;;;;-144.57;100.00;62443.72;5012781;28;20042;-60
2023/12/27 02:39:26;;;;;;;12.27;6.32;;;;;;;-144.57;100.00;62443.72;5012796;28;20049;-58
2023/12/27 02:41:52;;;;;;;13.80;6.68;;;;;;;-144.57;100.00;62443.72;5011583;28;20107;-60
2023/12/27 02:44:18;;;;;;;12.05;6.80;;;;;;;-144.57;100.00;62443.72;5012644;28;20049;-60
2023/12/27 02:46:45;;;;;;;9.75;6.35;;;;;;;-144.57;100.00;62443.72;5022867;28;20136;-60
2023/12/27 02:49:10;;;;;;;12.27;7.35;;;;;;;-144.57;100.00;62443.72;5030630;28;20486;-59
2023/12/27 02:51:36;;;;;;;11.05;6.35;;;;;;;-144.57;100.00;62443.72;5045487;28;20051;-58
2023/12/27 02:54:02;;;;;;;13.95;6.45;;;;;;;-144.57;100.00;62443.72;5050384;28;20033;-60
2023/12/27 02:56:28;;;;;;;12.20;6.78;;;;;;;-144.57;100.00;62443.72;5031992;28;20057;-59
2023/12/27 02:58:55;;;;;;;12.15;6.97;;;;;;;-144.57;100.00;62443.72;5031311;28;20053;-59
2023/12/27 03:01:20;;;;;;;11.93;6.25;;;;;;;-144.57;100.00;62443.72;5031413;28;20087;-60
2023/12/27 03:03:46;;;;;;;12.75;6.43;;;;;;;-144.57;100.00;62443.72;5031249;28;20045;-59
2023/12/27 03:06:12;;;;;;;13.55;6.82;;;;;;;-144.57;100.00;62443.72;5029680;28;20037;-60
2023/12/27 03:08:37;;;;;;;12.02;5.97;;;;;;;-144.57;100.00;62443.72;5031123;28;20049;-60
2023/12/27 03:11:06;;;;;;;11.25;5.97;;;;;;;-144.57;100.00;62443.72;5030941;28;20037;-60
2023/12/27 03:13:33;;;;;;;14.15;6.65;;;;;;;-144.57;100.00;62443.72;4997693;28;20033;-59
2023/12/27 03:16:06;;;;;;;13.88;7.10;;;;;;;-144.57;100.00;62443.72;5031085;28;20068;-60
2023/12/27 03:18:35;;;;;;;10.02;6.03;;;;;;;-144.57;100.00;62443.72;5031145;28;20048;-59
2023/12/27 03:21:01;;;;;;;11.52;6.45;;;;;;;-144.57;100.00;62443.72;5029570;28;20482;-59
2023/12/27 03:23:27;;;;;;;13.63;6.60;;;;;;;-144.57;100.00;62443.72;5029250;28;20081;-60
2023/12/27 03:25:56;;;;;;;11.70;6.50;;;;;;;-144.57;100.00;62443.72;5031014;28;20049;-60
2023/12/27 03:28:23;;;;;;;10.02;5.90;;;;;;;-144.57;100.00;62443.72;5029245;28;20128;-58
2023/12/27 03:30:50;;;;;;;11.68;6.10;;;;;;;-144.57;100.00;62443.72;5029317;28;20105;-59
2023/12/27 03:33:17;;;;;;;12.38;6.68;;;;;;;-144.57;100.00;62443.72;5029142;28;20107;-60
2023/12/27 03:35:42;;;;;;;10.68;5.55;;;;;;;-144.57;100.00;62443.72;5030742;28;20499;-60
2023/12/27 03:38:08;;;;;;;12.85;6.18;;;;;;;-144.57;100.00;62443.72;5030702;28;20045;-60
2023/12/27 03:40:35;;;;;;;12.27;6.55;;;;;;;-144.57;100.00;62443.72;5030757;28;20045;-59
2023/12/27 03:43:01;;;;;;;12.02;6.50;;;;;;;-144.57;100.00;62443.72;5030290;28;20465;-60
2023/12/27 03:45:26;;;;;;;15.63;6.80;;;;;;;-144.57;100.00;62443.72;5012731;28;20037;-60
2023/12/27 03:47:53;;;;;;;12.60;6.88;;;;;;;-144.57;100.00;62443.72;5030195;28;20533;-60
2023/12/27 03:50:19;;;;;;;12.27;6.47;;;;;;;-144.57;100.00;62443.72;5030441;28;20042;-60
2023/12/27 03:52:44;;;;;;;12.40;6.57;;;;;;;-144.57;100.00;62443.72;5029105;28;20094;-60
2023/12/27 03:55:10;;;;;;;12.65;6.82;;;;;;;-144.57;100.00;62443.72;5030565;28;20042;-61
2023/12/27 03:57:37;;;;;;;11.75;6.07;;;;;;;-144.57;100.00;62443.72;4989123;28;1172778;-60
2023/12/27 04:00:05;;;;;;;14.68;7.60;;;;;;;-144.57;100.00;62443.72;5031192;28;20128;-60
2023/12/27 04:02:33;;;;;;;13.38;6.78;;;;;;;-144.57;100.00;62443.72;5027137;28;20287;-60
2023/12/27 04:04:59;;;;;;;11.25;6.18;;;;;;;-144.57;100.00;62443.72;5009987;28;20561;-57
2023/12/27 04:07:25;;;;;;;12.02;6.60;;;;;;;-144.57;100.00;62443.72;5011573;28;20054;-62
2023/12/27 04:09:51;;;;;;;11.73;6.07;;;;;;;-144.57;100.00;62443.72;5010159;28;20042;-60
2023/12/27 04:12:19;;;;;;;13.40;6.65;;;;;;;-144.57;100.00;62443.72;4993895;28;20392;-60
2023/12/27 04:14:44;;;;;;;16.55;7.03;;;;;;;-144.57;100.00;62443.72;5011576;28;20096;-60
2023/12/27 04:17:10;;;;;;;14.05;7.30;;;;;;;-144.57;100.00;62443.72;5031215;28;20430;-62
2023/12/27 04:19:36;;;;;;;12.18;6.97;;;;;;;-144.57;100.00;62443.72;5029855;28;20038;-60
2023/12/27 04:22:03;;;;;;;12.38;6.78;;;;;;;-144.57;100.00;62443.72;5014520;28;20143;-60
2023/12/27 04:24:29;;;;;;;11.65;6.53;;;;;;;-144.57;100.00;62443.72;5037083;28;20113;-59
2023/12/27 04:26:55;;;;;;;12.13;6.18;;;;;;;-144.57;100.00;62443.72;5037442;28;20056;-60
2023/12/27 04:29:21;;;;;;;15.32;6.88;;;;;;;-144.57;100.00;62443.72;5021752;28;20045;-60
2023/12/27 04:31:48;;;;;;;13.20;7.78;;;;;;;-144.57;100.00;62443.72;5016999;28;20462;-59
2023/12/27 04:34:13;;;;;;;12.00;6.75;;;;;;;-144.57;100.00;62443.72;5016259;28;20038;-60
2023/12/27 04:36:39;;;;;;;14.02;6.75;;;;;;;-144.57;100.00;62443.72;5014651;28;20094;-61
2023/12/27 04:39:06;;;;;;;12.13;6.68;;;;;;;-144.57;100.00;62443.72;5054823;28;20051;-59
2023/12/27 04:41:32;;;;;;;12.52;6.50;;;;;;;-144.57;100.00;62443.72;5055328;28;20402;-59
2023/12/27 04:43:58;;;;;;;11.13;6.32;;;;;;;-144.57;100.00;62443.72;5053047;28;20556;-60
2023/12/27 04:46:26;;;;;;;12.52;7.10;;;;;;;-144.57;100.00;62443.72;5052797;28;20044;-60
2023/12/27 04:48:52;;;;;;;14.90;6.65;;;;;;;-144.57;100.00;62443.72;5053181;28;20053;-61
2023/12/27 04:51:18;;;;;;;11.43;6.70;;;;;;;-144.57;100.00;62443.72;5053255;28;20091;-60
2023/12/27 04:53:44;;;;;;;12.43;6.75;;;;;;;-144.57;100.00;62443.72;5054840;28;20041;-60
2023/12/27 04:56:10;;;;;;;11.73;6.43;;;;;;;-144.57;100.00;62443.72;5054838;28;20487;-61
2023/12/27 04:58:36;;;;;;;13.68;6.88;;;;;;;-144.57;100.00;62443.72;5053219;28;20060;-58
2023/12/27 05:01:06;;;;;;;13.73;6.75;;;;;;;-144.57;100.00;62443.72;5040715;28;20073;-61
2023/12/27 05:03:37;;;;;;;14.23;7.10;;;;;;;-144.57;100.00;62443.72;5032905;28;20049;-58
2023/12/27 05:06:08;;;;;;;12.60;6.53;;;;;;;-144.57;100.00;62443.72;5032664;28;20044;-61
2023/12/27 05:08:44;;;;;;;10.77;6.78;;;;;;;-144.57;100.00;62443.72;5034033;28;20037;-62
2023/12/27 05:11:11;;;;;;;13.50;6.72;;;;;;;-144.57;100.00;62443.72;5033090;28;20056;-57
2023/12/27 05:13:38;;;;;;;10.68;6.57;;;;;;;-144.57;100.00;62443.72;5033950;28;20144;-60
2023/12/27 05:16:13;;;;;;;11.98;6.68;;;;;;;-144.57;100.00;62443.72;5033604;28;20412;-60
2023/12/27 05:18:40;;;;;;;14.13;7.40;;;;;;;-144.57;100.00;62443.72;5033731;28;20092;-60
2023/12/27 05:21:07;;;;;;;12.50;6.95;;;;;;;-144.57;100.00;62443.72;5036583;28;20041;-59
2023/12/27 05:23:33;;;;;;;15.07;7.25;;;;;;;-144.57;100.00;62443.72;5033868;28;20045;-59
2023/12/27 05:25:59;;;;;;;14.90;7.28;;;;;;;-144.57;100.00;62443.72;5033936;28;20053;-59
2023/12/27 05:28:25;;;;;;;11.48;6.75;;;;;;;-144.57;100.00;62443.72;5033687;28;20395;-59
2023/12/27 05:30:51;;;;;;;12.68;7.03;;;;;;;-144.57;100.00;62443.72;5032511;28;20044;-59
2023/12/27 05:33:16;;;;;;;11.75;6.40;;;;;;;-144.57;100.00;62443.72;5033496;28;20042;-59
2023/12/27 05:35:42;;;;;;;13.05;7.28;;;;;;;-144.57;100.00;62443.72;5032267;28;20573;-60
2023/12/27 05:38:08;;;;;;;14.40;7.05;;;;;;;-144.57;100.00;62443.72;5034135;28;20046;-59
2023/12/27 05:40:33;;;;;;;11.65;6.85;;;;;;;-144.57;100.00;62443.72;5052126;28;20051;-59
2023/12/27 05:42:59;;;;;;;12.15;6.47;;;;;;;-144.57;100.00;62443.72;5053144;28;20048;-60
2023/12/27 05:45:25;;;;;;;13.40;7.32;;;;;;;-144.57;100.00;62443.72;5035553;28;20526;-58
2023/12/27 05:47:51;;;;;;;14.98;7.32;;;;;;;-144.57;100.00;62443.72;5053390;28;20045;-59
2023/12/27 05:50:17;;;;;;;13.25;7.47;;;;;;;-144.57;100.00;62443.72;5053014;28;20469;-59
2023/12/27 05:52:43;;;;;;;15.75;8.32;;;;;;;-144.57;100.00;62443.72;5053042;28;20044;-59
2023/12/27 05:55:09;;;;;;;19.40;8.07;;;;;;;-144.57;100.00;62443.72;5053050;28;20072;-59
2023/12/27 05:57:35;;;;;;;15.07;7.85;;;;;;;-144.57;100.00;62443.72;5052866;28;20064;-60
2023/12/27 06:00:01;;;;;;;15.60;7.70;;;;;;;-144.57;100.00;62443.72;5047136;28;20478;-59
2023/12/27 06:02:39;;;;;;;13.73;7.10;;;;;;;-144.57;100.00;62443.72;5032215;28;20111;-59
2023/12/27 06:05:06;;;;;;;15.30;7.78;;;;;;;-144.57;100.00;62443.72;5014624;28;20124;-59
2023/12/27 06:07:32;;;;;;;17.10;8.32;;;;;;;-144.57;100.00;62443.72;5030667;28;20591;-59
2023/12/27 06:09:58;;;;;;;14.73;7.50;;;;;;;-144.57;100.00;62443.72;5027144;28;20136;-60
2023/12/27 06:12:24;;;;;;;14.68;8.02;;;;;;;-144.57;100.00;62443.72;5032379;28;20045;-58
2023/12/27 06:14:50;;;;;;;14.35;7.45;;;;;;;-144.57;100.00;62443.72;5014946;28;20033;-62
2023/12/27 06:17:16;;;;;;;16.75;8.77;;;;;;;-144.57;100.00;62443.72;5031750;28;20623;-59
2023/12/27 06:19:43;;;;;;;14.50;7.60;;;;;;;-144.57;100.00;62443.72;5032623;28;20152;-59
2023/12/27 06:22:09;;;;;;;17.20;8.23;;;;;;;-144.57;100.00;62443.72;5030854;28;20041;-60
2023/12/27 06:24:35;;;;;;;14.73;7.22;;;;;;;-144.57;100.00;62443.72;5030540;28;20408;-63
2023/12/27 06:27:00;;;;;;;17.30;8.65;;;;;;;-144.57;100.00;62443.72;5032041;28;20037;-61
2023/12/27 06:29:26;;;;;;;15.48;8.10;;;;;;;-144.57;100.00;62443.72;5032288;28;20049;-57
2023/12/27 06:31:52;;;;;;;15.35;8.50;;;;;;;-144.57;100.00;62443.72;5032048;28;20137;-59
2023/12/27 06:34:18;;;;;;;17.20;8.90;;;;;;;-144.57;100.00;62443.72;5031861;28;20674;-59
2023/12/27 06:36:44;;;;;;;17.85;8.65;;;;;;;-144.57;100.00;62443.72;5032315;28;20037;-60
2023/12/27 06:39:10;;;;;;;18.23;8.65;;;;;;;-144.57;100.00;62443.72;5031454;28;20053;-61
2023/12/27 06:41:36;;;;;;;16.85;9.00;;;;;;;-144.57;100.00;62443.72;5031023;28;20041;-62
2023/12/27 06:44:02;;;;;;;18.02;8.63;;;;;;;-144.57;100.00;62443.72;5031489;28;20041;-58
2023/12/27 06:46:29;;;;;;;15.80;7.60;;;;;;;-144.57;100.00;62443.72;5031680;28;20049;-61
2023/12/27 06:48:55;;;;;;;17.77;8.25;;;;;;;-144.57;100.00;62443.72;5031389;28;20153;-57
2023/12/27 06:51:20;;;;;;;13.40;7.78;;;;;;;-144.57;100.00;62443.72;5031676;28;20055;-59
2023/12/27 06:53:46;;;;;;;15.38;7.93;;;;;;;-144.57;100.00;62443.72;5031430;28;20067;-59
2023/12/27 06:56:12;;;;;;;13.63;7.50;;;;;;;-144.57;100.00;62443.72;5030111;28;20463;-59
2023/12/27 06:58:38;;;;;;;18.02;8.18;;;;;;;-144.57;100.00;62443.72;5030388;28;20076;-59
2023/12/27 07:01:04;;;;;;;18.23;8.88;;;;;;;-144.57;100.00;62443.72;5030360;28;20546;-60
2023/12/27 07:03:30;;;;;;;16.55;8.25;;;;;;;-144.57;100.00;62443.72;5031367;28;20053;-59
2023/12/27 07:05:56;;;;;;;16.98;8.13;;;;;;;-144.57;100.00;62443.72;5031553;28;20041;-58
2023/12/27 07:08:22;;;;;;;17.02;8.48;;;;;;;-144.57;100.00;62443.72;5024439;28;20084;-58
2023/12/27 07:10:48;;;;;;;15.23;7.72;;;;;;;-144.57;100.00;62443.72;5020138;28;20049;-59
2023/12/27 07:13:14;;;;;;;18.65;8.93;;;;;;;-144.57;100.00;62443.72;5012750;28;20396;-59
2023/12/27 07:15:40;;;;;;;15.98;7.93;;;;;;;-144.57;100.00;62443.72;5030754;28;20041;-60
2023/12/27 07:18:06;;;;;;;17.27;8.50;;;;;;;-144.57;100.00;62443.72;5028153;28;20048;-56
2023/12/27 07:20:32;;;;;;;17.92;9.20;;;;;;;-144.57;100.00;62443.72;5011315;28;20041;-57
2023/12/27 07:22:58;;;;;;;20.65;9.73;;;;;;;-144.57;100.00;62443.72;4982044;28;20191;-60
2023/12/27 07:25:25;;;;;;;16.00;9.35;;;;;;;-144.57;100.00;62443.72;5031443;28;20120;-58
2023/12/27 07:27:51;;;;;;;17.00;9.80;;;;;;;-144.57;100.00;62443.72;5028141;28;20123;-58
2023/12/27 07:30:17;;;;;;;20.45;10.90;;;;;;;-144.57;100.00;62443.72;5031356;28;20084;-58
2023/12/27 07:32:43;;;;;;;20.83;10.00;;;;;;;-144.57;100.00;62443.72;5030480;28;20042;-56
2023/12/27 07:35:10;;;;;;;21.73;10.90;;;;;;;-144.57;100.00;62443.72;4997024;28;20562;-61
2023/12/27 07:37:36;;;;;;;20.77;10.93;;;;;;;-144.57;100.00;62443.72;5028213;28;20064;-61
2023/12/27 07:40:03;;;;;;;20.35;10.45;;;;;;;-144.57;100.00;62443.72;5046244;28;20521;-59
2023/12/27 07:42:29;;;;;;;22.88;10.57;;;;;;;-144.57;100.00;62443.72;5028451;28;20048;-60
2023/12/27 07:44:55;;;;;;;20.85;9.88;;;;;;;-144.57;100.00;62443.72;5028981;28;20495;-59
2023/12/27 07:47:21;;;;;;;19.73;10.30;;;;;;;-144.57;100.00;62443.72;5029478;28;20053;-58
2023/12/27 07:49:47;;;;;;;21.10;10.55;;;;;;;-144.57;100.00;62443.72;5026875;28;20049;-59
2023/12/27 07:52:12;;;;;;;18.02;9.95;;;;;;;-144.57;100.00;62443.72;5029738;28;20045;-60
2023/12/27 07:54:38;;;;;;;19.25;9.25;;;;;;;-144.57;100.00;62443.72;5026831;28;20045;-59
2023/12/27 07:57:04;;;;;;;17.83;10.27;;;;;;;-144.57;100.00;62443.72;5028782;28;20062;-60
2023/12/27 07:59:31;;;;;;;14.75;8.15;;;;;;;-144.57;100.00;62443.72;5032125;28;20037;-59
2023/12/27 08:01:58;;;;;;;17.52;9.43;;;;;;;-144.57;100.00;62443.72;5028540;28;20037;-59
2023/12/27 08:04:24;;;;;;;15.45;8.52;;;;;;;-144.57;100.00;62443.72;5032850;28;20075;-59
2023/12/27 08:06:51;;;;;;;16.98;8.88;;;;;;;-144.57;100.00;62443.72;5034959;28;20077;-61
2023/12/27 08:09:18;;;;;;;16.83;9.10;;;;;;;-144.57;100.00;62443.72;5019280;28;20091;-57
2023/12/27 08:11:45;;;;;;;17.67;8.98;;;;;;;-144.57;100.00;62443.72;5033558;28;20095;-58
2023/12/27 08:14:11;;;;;;;16.60;8.90;;;;;;;-144.57;100.00;62443.72;5030153;28;20399;-58
2023/12/27 08:16:37;;;;;;;16.15;9.05;;;;;;;-144.57;100.00;62443.72;5030541;28;20041;-59
2023/12/27 08:19:03;;;;;;;16.30;8.20;;;;;;;-144.57;100.00;62443.72;5032667;28;20615;-59
2023/12/27 08:21:29;;;;;;;16.35;8.63;;;;;;;-144.57;100.00;62443.72;5007220;28;20468;-58
2023/12/27 08:23:55;;;;;;;16.27;9.38;;;;;;;-144.57;100.00;62443.72;5016124;28;20076;-57
2023/12/27 08:26:20;;;;;;;18.65;10.00;;;;;;;-144.57;100.00;62443.72;5026811;28;20065;-59
2023/12/27 08:28:47;;;;;;;16.38;9.13;;;;;;;-144.57;100.00;62443.72;5023091;28;20049;-59
2023/12/27 08:31:13;;;;;;;16.17;9.15;;;;;;;-144.57;100.00;62443.72;5039608;28;20438;-58
2023/12/27 08:33:39;;;;;;;25.45;12.13;;;;;;;-144.57;100.00;62443.72;5031179;28;20037;-60
2023/12/27 08:36:05;;;;;;;16.50;10.27;;;;;;;-144.57;100.00;62443.72;5034335;28;20037;-60
2023/12/27 08:38:32;;;;;;;20.75;10.68;;;;;;;-144.57;100.00;62443.72;5033598;28;20045;-59
2023/12/27 08:40:58;;;;;;;17.60;10.27;;;;;;;-144.57;100.00;62443.72;5034200;28;20056;-57
2023/12/27 08:43:27;;;;;;;19.33;10.60;;;;;;;-144.57;100.00;62443.72;5032855;28;20141;-57
2023/12/27 08:45:54;;;;;;;20.23;10.82;;;;;;;-144.57;100.00;62443.72;5034365;28;20041;-59
2023/12/27 08:48:20;;;;;;;19.48;9.32;;;;;;;-144.57;100.00;62443.72;5000276;28;20536;-58
2023/12/27 08:50:48;;;;;;;17.10;9.75;;;;;;;-144.57;100.00;62443.72;5032958;28;20136;-57
2023/12/27 08:53:14;;;;;;;21.63;10.40;;;;;;;-144.57;100.00;62443.72;5033824;28;20090;-58
2023/12/27 08:55:41;;;;;;;18.35;11.48;;;;;;;-144.57;100.00;62443.72;5033624;28;20132;-58
2023/12/27 08:58:09;;;;;;;21.45;11.55;;;;;;;-144.57;100.00;62443.72;5023253;28;20395;-57
2023/12/27 09:00:35;;;;;;;20.35;11.48;;;;;;;-144.57;100.00;62443.72;5023315;28;20061;-58
2023/12/27 09:03:02;;;;;;;20.80;12.05;;;;;;;-144.57;100.00;62443.72;5031562;28;20048;-58
2023/12/27 09:05:28;;;;;;;21.98;12.65;;;;;;;-144.57;100.00;62443.72;5025827;28;20053;-57
2023/12/27 09:07:54;;;;;;;20.52;11.32;;;;;;;-144.57;100.00;62443.72;5021070;28;20159;-59
2023/12/27 09:10:20;;;;;;;26.13;12.90;;;;;;;-144.57;100.00;62443.72;5033508;28;20110;-58
2023/12/27 09:12:46;;;;;;;20.08;10.95;;;;;;;-144.57;100.00;62443.72;5034593;28;20590;-58
2023/12/27 09:15:14;;;;;;;20.42;11.10;;;;;;;-144.57;100.00;62443.72;5051196;28;20041;-58
2023/12/27 09:17:40;;;;;;;27.15;13.05;;;;;;;-144.57;100.00;62443.72;5032138;28;20138;-59
2023/12/27 09:20:07;;;;;;;22.00;13.32;;;;;;;-144.57;100.00;62443.72;5032206;28;20566;-59
2023/12/27 09:22:34;;;;;;;17.92;10.75;;;;;;;-144.57;100.00;62443.72;5031901;28;20040;-58
2023/12/27 09:25:00;;;;;;;30.52;11.45;;;;;;;-144.57;100.00;62443.72;5029017;28;20033;-58
2023/12/27 09:27:26;;;;;;;23.13;11.43;;;;;;;-144.57;100.00;62443.72;5031505;28;20041;-59
2023/12/27 09:29:52;;;;;;;22.95;12.00;;;;;;;-144.57;100.00;62443.72;5014005;28;20056;-59
2023/12/27 09:32:18;;;;;;;24.70;13.80;;;;;;;-144.57;100.00;62443.72;5028341;28;20041;-59
2023/12/27 09:34:44;;;;;;;22.15;11.77;;;;;;;-144.57;100.00;62443.72;5010041;28;20042;-60
2023/12/27 09:37:10;;;;;;;20.15;12.25;;;;;;;-144.57;100.00;62443.72;5025888;28;20037;-62
2023/12/27 09:39:37;;;;;;;26.83;13.65;;;;;;;-144.57;100.00;62443.72;5026286;28;20044;-60
2023/12/27 09:42:04;;;;;;;25.20;11.45;;;;;;;-144.57;100.00;62443.72;5023432;28;20047;-60
2023/12/27 09:44:32;;;;;;;20.10;10.95;;;;;;;-144.57;100.00;62443.72;5032785;28;20132;-58
2023/12/27 09:46:59;;;;;;;23.20;10.48;;;;;;;-144.57;100.00;62443.72;5031254;28;20042;-58
2023/12/27 09:49:25;;;;;;;21.83;11.43;;;;;;;-144.57;100.00;62443.72;5031178;28;20045;-53
2023/12/27 09:51:53;;;;;;;18.02;9.38;;;;;;;-144.57;100.00;62443.72;4996957;28;20048;-58
2023/12/27 09:54:20;;;;;;;16.25;8.52;;;;;;;-144.57;100.00;62443.72;4988895;28;20056;-58
2023/12/27 09:56:47;;;;;;;17.08;8.27;;;;;;;-144.57;100.00;62443.72;5017027;28;20123;-56
2023/12/27 09:59:22;;;;;;;17.60;8.60;;;;;;;-144.57;100.00;62443.72;4978915;28;20049;-55
2023/12/27 10:01:50;;;;;;;14.13;7.68;;;;;;;-144.57;100.00;62443.72;5019127;28;20040;-55
2023/12/27 10:04:34;;;;;;;15.57;8.15;;;;;;;-144.57;100.00;62443.72;5041056;28;20495;-60
2023/12/27 10:07:00;;;;;;;16.67;8.70;;;;;;;-144.57;100.00;62443.72;5032562;28;20042;-57
2023/12/27 10:09:27;;;;;;;16.80;9.10;;;;;;;-144.57;100.00;62443.72;5011146;28;20133;-58
2023/12/27 10:11:53;;;;;;;20.73;9.45;;;;;;;-144.57;100.00;62443.72;4997519;28;20129;-59
2023/12/27 10:14:19;;;;;;;19.73;10.30;;;;;;;-144.57;100.00;62443.72;5032513;28;20519;-58
2023/12/27 10:16:45;;;;;;;28.65;11.82;;;;;;;-144.57;100.00;62443.72;5032259;28;20392;-59
2023/12/27 10:19:37;;;;;;;23.08;11.27;;;;;;;-144.57;100.00;62443.72;5031386;28;20030;-57
2023/12/27 10:22:10;;;;;;;21.48;10.52;;;;;;;-144.57;100.00;62443.72;5037597;28;20053;-57
2023/12/27 10:24:41;;;;;;;18.63;9.00;;;;;;;-144.57;100.00;62443.72;4995338;28;20068;-60
2023/12/27 10:27:48;;;;;;;19.30;10.00;;;;;;;-144.57;100.00;62443.72;5011270;28;20077;-58
2023/12/27 10:30:18;;;;;;;17.67;9.48;;;;;;;-144.57;100.00;62443.72;5047876;28;20053;-60
2023/12/27 10:32:45;;;;;;;;;;;;;;;-144.57;100.00;62443.72;5050543;28;20537;-55
2023/12/27 10:35:11;;;;;;;23.05;10.18;;;;;;;-144.57;100.00;62443.72;5049986;28;19939;-60
2023/12/27 10:37:37;;;;;;;18.02;9.38;;;;;;;-144.57;100.00;62443.72;5049673;28;20561;-58
2023/12/27 10:40:04;;;;;;;15.75;8.00;;;;;;;-144.57;100.00;62443.72;5051080;28;20048;-58
2023/12/27 10:42:30;;;;;;;16.15;6.25;;;;;;;-144.57;100.00;62443.72;5050544;28;20049;-59
2023/12/27 10:44:55;;;;;;;11.93;6.60;;;;;;;-144.57;100.00;62443.72;5051578;28;20655;-59
2023/12/27 10:47:22;;;;;;;11.88;6.35;;;;;;;-144.57;100.00;62443.72;5051365;28;20069;-57
2023/12/27 10:49:50;;;;;;;10.48;5.40;;;;;;;-144.57;100.00;62443.72;5051728;28;20578;-59
2023/12/27 10:52:17;;;;;;;10.30;4.70;;;;;;;-144.57;100.00;62443.72;5050644;28;20045;-59
2023/12/27 10:54:46;;;;;;;8.07;4.72;;;;;;;-144.57;100.00;62443.72;5050402;28;20041;-60
2023/12/27 10:57:15;;;;;;;7.47;4.10;;;;;;;-144.57;100.00;62443.72;5051487;28;20414;-58
2023/12/27 10:59:41;;;;;;;8.85;4.13;;;;;;;-144.57;100.00;62443.72;5015130;28;20033;-60